Terminal Aerodrome Forecast
Issued by NWS

Home | Current Version | Previous Version | Text Only | Print | Product List | Glossary On
Versions: 1 2 3 4 5 6 7 8 9 10 11 12 13 14 15 16
000
FTUS41 KBGM 011100
TAFELM
TAF
KELM 011127Z 0112/0212 VRB03KT 1SM -SN OVC015
      TEMPO 0114/0118 3SM -SN BR OVC025
     FM011800 VRB06KT 1 1/2SM -SN BR OVC015
      TEMPO 0122/0202 1SM -SN OVC009
     FM020400 30005KT P6SM -SHSN OVC025=

USA.gov is the U.S. government's official web portal to all federal, state and local government web resources and services.